sensor_id;sensor_type;location;lat;lon;timestamp;temperature;humidity
8105;DHT22;4095;48.942;9.104;2022-12-31T00:00:31;15.10;99.90
8105;DHT22;4095;48.942;9.104;2022-12-31T00:02:57;15.10;99.90
8105;DHT22;4095;48.942;9.104;2022-12-31T00:05:22;15.10;99.90
8105;DHT22;4095;48.942;9.104;2022-12-31T00:07:48;15.10;99.90
8105;DHT22;4095;48.942;9.104;2022-12-31T00:10:14;15.10;99.90
8105;DHT22;4095;48.942;9.104;2022-12-31T00:12:39;15.20;99.90
8105;DHT22;4095;48.942;9.104;2022-12-31T00:15:05;15.20;99.90
8105;DHT22;4095;48.942;9.104;2022-12-31T00:17:31;15.20;99.90
8105;DHT22;4095;48.942;9.104;2022-12-31T00:19:57;15.20;99.90
8105;DHT22;4095;48.942;9.104;2022-12-31T00:22:22;15.20;99.90
8105;DHT22;4095;48.942;9.104;2022-12-31T00:24:48;15.20;99.90
8105;DHT22;4095;48.942;9.104;2022-12-31T00:27:13;15.20;99.90
8105;DHT22;4095;48.942;9.104;2022-12-31T00:29:39;15.30;99.90
8105;DHT22;4095;48.942;9.104;2022-12-31T00:32:04;15.30;99.90
8105;DHT22;4095;48.942;9.104;2022-12-31T00:34:30;15.30;99.90
8105;DHT22;4095;48.942;9.104;2022-12-31T00:36:56;15.30;99.90
8105;DHT22;4095;48.942;9.104;2022-12-31T00:39:21;15.30;99.90
8105;DHT22;4095;48.942;9.104;2022-12-31T00:41:47;15.30;99.90
8105;DHT22;4095;48.942;9.104;2022-12-31T00:44:13;15.30;99.90
8105;DHT22;4095;48.942;9.104;2022-12-31T00:46:38;15.30;99.90
8105;DHT22;4095;48.942;9.104;2022-12-31T00:49:04;15.30;99.90
8105;DHT22;4095;48.942;9.104;2022-12-31T00:51:30;15.40;99.90
8105;DHT22;4095;48.942;9.104;2022-12-31T00:53:56;15.40;99.90
8105;DHT22;4095;48.942;9.104;2022-12-31T00:56:24;15.40;99.90
8105;DHT22;4095;48.942;9.104;2022-12-31T00:58:51;15.50;99.90
8105;DHT22;4095;48.942;9.104;2022-12-31T01:01:22;15.50;99.90
8105;DHT22;4095;48.942;9.104;2022-12-31T01:03:50;15.50;99.90
8105;DHT22;4095;48.942;9.104;2022-12-31T01:06:16;15.50;99.90
8105;DHT22;4095;48.942;9.104;2022-12-31T01:08:43;15.60;99.90
8105;DHT22;4095;48.942;9.104;2022-12-31T01:11:10;15.60;99.90
8105;DHT22;4095;48.942;9.104;2022-12-31T01:16:24;15.70;99.90
8105;DHT22;4095;48.942;9.104;2022-12-31T01:18:50;15.70;99.90
8105;DHT22;4095;48.942;9.104;2022-12-31T01:21:18;15.80;99.90
8105;DHT22;4095;48.942;9.104;2022-12-31T01:23:43;15.80;99.90
8105;DHT22;4095;48.942;9.104;2022-12-31T01:26:11;15.80;99.90
8105;DHT22;4095;48.942;9.104;2022-12-31T01:28:38;15.80;99.90
8105;DHT22;4095;48.942;9.104;2022-12-31T01:31:06;15.80;99.90
8105;DHT22;4095;48.942;9.104;2022-12-31T01:33:32;15.90;99.90
8105;DHT22;4095;48.942;9.104;2022-12-31T01:36:03;15.90;99.90
8105;DHT22;4095;48.942;9.104;2022-12-31T01:38:28;15.80;99.90
8105;DHT22;4095;48.942;9.104;2022-12-31T01:40:54;15.80;99.90
8105;DHT22;4095;48.942;9.104;2022-12-31T01:43:20;15.80;99.90
8105;DHT22;4095;48.942;9.104;2022-12-31T01:45:48;15.70;99.90
8105;DHT22;4095;48.942;9.104;2022-12-31T01:48:19;15.70;99.90
8105;DHT22;4095;48.942;9.104;2022-12-31T01:50:47;15.70;99.90
8105;DHT22;4095;48.942;9.104;2022-12-31T01:53:14;15.70;99.90
8105;DHT22;4095;48.942;9.104;2022-12-31T01:55:54;15.60;99.90
8105;DHT22;4095;48.942;9.104;2022-12-31T01:58:28;15.60;99.90
8105;DHT22;4095;48.942;9.104;2022-12-31T02:00:57;15.50;99.90
8105;DHT22;4095;48.942;9.104;2022-12-31T02:03:24;15.60;99.90
8105;DHT22;4095;48.942;9.104;2022-12-31T02:05:52;15.50;99.90
8105;DHT22;4095;48.942;9.104;2022-12-31T02:08:20;15.50;99.90
8105;DHT22;4095;48.942;9.104;2022-12-31T02:10:46;15.50;99.90
8105;DHT22;4095;48.942;9.104;2022-12-31T02:13:12;15.50;99.90
8105;DHT22;4095;48.942;9.104;2022-12-31T02:15:59;15.50;99.90
8105;DHT22;4095;48.942;9.104;2022-12-31T02:18:45;15.50;99.90
8105;DHT22;4095;48.942;9.104;2022-12-31T02:21:35;15.50;99.90
8105;DHT22;4095;48.942;9.104;2022-12-31T02:24:15;15.50;99.90
8105;DHT22;4095;48.942;9.104;2022-12-31T02:32:15;15.50;99.90
8105;DHT22;4095;48.942;9.104;2022-12-31T02:34:57;15.60;99.90
8105;DHT22;4095;48.942;9.104;2022-12-31T02:37:26;15.60;99.90
8105;DHT22;4095;48.942;9.104;2022-12-31T02:39:54;15.60;99.90
8105;DHT22;4095;48.942;9.104;2022-12-31T02:42:20;15.70;99.90
8105;DHT22;4095;48.942;9.104;2022-12-31T02:44:46;15.70;99.90
8105;DHT22;4095;48.942;9.104;2022-12-31T02:47:29;15.70;99.90
8105;DHT22;4095;48.942;9.104;2022-12-31T02:50:19;15.80;99.90
8105;DHT22;4095;48.942;9.104;2022-12-31T02:58:10;15.80;99.90
8105;DHT22;4095;48.942;9.104;2022-12-31T03:00:50;15.80;99.90
8105;DHT22;4095;48.942;9.104;2022-12-31T03:03:36;15.70;99.90
8105;DHT22;4095;48.942;9.104;2022-12-31T03:06:03;15.60;99.90
8105;DHT22;4095;48.942;9.104;2022-12-31T03:08:30;15.60;99.90
8105;DHT22;4095;48.942;9.104;2022-12-31T03:10:56;15.60;99.90
8105;DHT22;4095;48.942;9.104;2022-12-31T03:13:23;15.60;99.90
8105;DHT22;4095;48.942;9.104;2022-12-31T03:15:48;15.60;99.90
8105;DHT22;4095;48.942;9.104;2022-12-31T03:18:16;15.70;99.90
8105;DHT22;4095;48.942;9.104;2022-12-31T03:20:48;15.70;99.90
8105;DHT22;4095;48.942;9.104;2022-12-31T03:23:38;15.70;99.90
8105;DHT22;4095;48.942;9.104;2022-12-31T03:26:05;15.70;99.90
8105;DHT22;4095;48.942;9.104;2022-12-31T03:28:37;15.70;99.90
8105;DHT22;4095;48.942;9.104;2022-12-31T03:31:03;15.80;99.90
8105;DHT22;4095;48.942;9.104;2022-12-31T03:33:30;15.80;99.90
8105;DHT22;4095;48.942;9.104;2022-12-31T03:35:56;15.80;99.90
8105;DHT22;4095;48.942;9.104;2022-12-31T03:38:22;15.70;99.90
8105;DHT22;4095;48.942;9.104;2022-12-31T03:40:51;15.80;99.90
8105;DHT22;4095;48.942;9.104;2022-12-31T03:43:17;15.80;99.90
8105;DHT22;4095;48.942;9.104;2022-12-31T03:45:48;15.80;99.90
8105;DHT22;4095;48.942;9.104;2022-12-31T03:48:14;15.70;99.90
8105;DHT22;4095;48.942;9.104;2022-12-31T03:50:39;15.80;99.90
8105;DHT22;4095;48.942;9.104;2022-12-31T03:53:05;15.80;99.90
8105;DHT22;4095;48.942;9.104;2022-12-31T03:55:30;15.80;99.90
8105;DHT22;4095;48.942;9.104;2022-12-31T03:57:56;15.90;99.90
8105;DHT22;4095;48.942;9.104;2022-12-31T04:00:22;15.90;99.90
8105;DHT22;4095;48.942;9.104;2022-12-31T04:02:48;16.00;99.90
8105;DHT22;4095;48.942;9.104;2022-12-31T04:05:15;16.10;99.90
8105;DHT22;4095;48.942;9.104;2022-12-31T04:07:41;16.10;99.90
8105;DHT22;4095;48.942;9.104;2022-12-31T04:10:09;16.10;99.90
8105;DHT22;4095;48.942;9.104;2022-12-31T04:12:35;16.20;99.90
8105;DHT22;4095;48.942;9.104;2022-12-31T04:15:01;16.20;99.90
8105;DHT22;4095;48.942;9.104;2022-12-31T04:17:27;16.20;99.90
8105;DHT22;4095;48.942;9.104;2022-12-31T04:19:53;16.30;99.90
8105;DHT22;4095;48.942;9.104;2022-12-31T04:22:18;16.30;99.90
8105;DHT22;4095;48.942;9.104;2022-12-31T04:24:44;16.30;99.90
8105;DHT22;4095;48.942;9.104;2022-12-31T04:27:13;16.30;99.90
8105;DHT22;4095;48.942;9.104;2022-12-31T04:29:39;16.30;99.90
8105;DHT22;4095;48.942;9.104;2022-12-31T04:32:05;16.30;99.90
8105;DHT22;4095;48.942;9.104;2022-12-31T04:34:32;16.40;99.90
8105;DHT22;4095;48.942;9.104;2022-12-31T04:36:58;16.30;99.90
8105;DHT22;4095;48.942;9.104;2022-12-31T04:39:24;16.30;99.90
8105;DHT22;4095;48.942;9.104;2022-12-31T04:41:50;16.40;99.90
8105;DHT22;4095;48.942;9.104;2022-12-31T04:44:16;16.40;99.90
8105;DHT22;4095;48.942;9.104;2022-12-31T04:46:42;16.40;99.90
8105;DHT22;4095;48.942;9.104;2022-12-31T04:49:08;16.50;99.90
8105;DHT22;4095;48.942;9.104;2022-12-31T04:51:34;16.40;99.90
8105;DHT22;4095;48.942;9.104;2022-12-31T04:54:00;16.50;99.90
8105;DHT22;4095;48.942;9.104;2022-12-31T04:56:27;16.50;99.90
8105;DHT22;4095;48.942;9.104;2022-12-31T04:58:53;16.50;99.90
8105;DHT22;4095;48.942;9.104;2022-12-31T05:01:19;16.50;99.90
8105;DHT22;4095;48.942;9.104;2022-12-31T05:03:45;16.50;99.90
8105;DHT22;4095;48.942;9.104;2022-12-31T05:06:19;16.50;99.90
8105;DHT22;4095;48.942;9.104;2022-12-31T05:08:45;16.50;99.90
8105;DHT22;4095;48.942;9.104;2022-12-31T05:11:12;16.50;99.90
8105;DHT22;4095;48.942;9.104;2022-12-31T05:13:38;16.40;99.90
8105;DHT22;4095;48.942;9.104;2022-12-31T05:16:04;16.40;99.90
8105;DHT22;4095;48.942;9.104;2022-12-31T05:18:30;16.40;99.90
8105;DHT22;4095;48.942;9.104;2022-12-31T05:20:56;16.40;99.90
8105;DHT22;4095;48.942;9.104;2022-12-31T05:23:22;16.40;99.90
8105;DHT22;4095;48.942;9.104;2022-12-31T05:25:48;16.40;99.90
8105;DHT22;4095;48.942;9.104;2022-12-31T05:28:15;16.50;99.90
8105;DHT22;4095;48.942;9.104;2022-12-31T05:30:41;16.50;99.90
8105;DHT22;4095;48.942;9.104;2022-12-31T05:33:07;16.50;99.90
8105;DHT22;4095;48.942;9.104;2022-12-31T05:35:33;16.50;99.90
8105;DHT22;4095;48.942;9.104;2022-12-31T05:37:59;16.50;99.90
8105;DHT22;4095;48.942;9.104;2022-12-31T05:40:26;16.60;99.90
8105;DHT22;4095;48.942;9.104;2022-12-31T05:42:51;16.60;99.90
8105;DHT22;4095;48.942;9.104;2022-12-31T05:45:17;16.60;99.90
8105;DHT22;4095;48.942;9.104;2022-12-31T05:47:44;16.60;99.90
8105;DHT22;4095;48.942;9.104;2022-12-31T05:50:12;16.60;99.90
8105;DHT22;4095;48.942;9.104;2022-12-31T05:52:39;16.60;99.90
8105;DHT22;4095;48.942;9.104;2022-12-31T05:55:05;16.60;99.90
8105;DHT22;4095;48.942;9.104;2022-12-31T05:57:31;16.70;99.90
8105;DHT22;4095;48.942;9.104;2022-12-31T05:59:57;16.70;99.90
8105;DHT22;4095;48.942;9.104;2022-12-31T06:02:22;16.70;99.90
8105;DHT22;4095;48.942;9.104;2022-12-31T06:04:48;16.70;99.90
8105;DHT22;4095;48.942;9.104;2022-12-31T06:07:14;16.70;99.90
8105;DHT22;4095;48.942;9.104;2022-12-31T06:09:39;16.80;99.90
8105;DHT22;4095;48.942;9.104;2022-12-31T06:12:05;16.80;99.90
8105;DHT22;4095;48.942;9.104;2022-12-31T06:14:31;16.80;99.90
8105;DHT22;4095;48.942;9.104;2022-12-31T06:16:57;16.80;99.90
8105;DHT22;4095;48.942;9.104;2022-12-31T06:19:22;16.90;99.90
8105;DHT22;4095;48.942;9.104;2022-12-31T06:21:49;16.90;99.90
8105;DHT22;4095;48.942;9.104;2022-12-31T06:24:15;16.90;99.90
8105;DHT22;4095;48.942;9.104;2022-12-31T06:26:40;16.90;99.90
8105;DHT22;4095;48.942;9.104;2022-12-31T06:29:06;16.90;99.90
8105;DHT22;4095;48.942;9.104;2022-12-31T06:31:32;16.90;99.90
8105;DHT22;4095;48.942;9.104;2022-12-31T06:33:58;17.00;99.90
8105;DHT22;4095;48.942;9.104;2022-12-31T06:36:23;16.90;99.90
8105;DHT22;4095;48.942;9.104;2022-12-31T06:38:49;16.90;99.90
8105;DHT22;4095;48.942;9.104;2022-12-31T06:41:15;16.90;99.90
8105;DHT22;4095;48.942;9.104;2022-12-31T06:43:41;17.00;99.90
8105;DHT22;4095;48.942;9.104;2022-12-31T06:46:09;16.90;99.90
8105;DHT22;4095;48.942;9.104;2022-12-31T06:48:36;16.90;99.90
8105;DHT22;4095;48.942;9.104;2022-12-31T06:51:07;17.00;99.90
8105;DHT22;4095;48.942;9.104;2022-12-31T06:53:33;17.00;99.90
8105;DHT22;4095;48.942;9.104;2022-12-31T06:56:13;16.90;99.90
8105;DHT22;4095;48.942;9.104;2022-12-31T06:58:39;16.90;99.90
8105;DHT22;4095;48.942;9.104;2022-12-31T07:15:04;16.90;99.90
8105;DHT22;4095;48.942;9.104;2022-12-31T07:20:18;16.90;99.90
8105;DHT22;4095;48.942;9.104;2022-12-31T07:22:44;16.90;99.90
8105;DHT22;4095;48.942;9.104;2022-12-31T07:25:15;16.90;99.90
8105;DHT22;4095;48.942;9.104;2022-12-31T07:28:17;16.90;99.90
8105;DHT22;4095;48.942;9.104;2022-12-31T07:36:41;16.90;99.90
8105;DHT22;4095;48.942;9.104;2022-12-31T07:39:02;16.90;99.90
8105;DHT22;4095;48.942;9.104;2022-12-31T07:41:48;16.90;99.90
8105;DHT22;4095;48.942;9.104;2022-12-31T07:47:22;16.90;99.90
8105;DHT22;4095;48.942;9.104;2022-12-31T07:49:49;17.00;99.90
8105;DHT22;4095;48.942;9.104;2022-12-31T07:52:15;17.00;99.90
8105;DHT22;4095;48.942;9.104;2022-12-31T07:54:41;17.00;99.90
8105;DHT22;4095;48.942;9.104;2022-12-31T07:57:09;17.00;99.90
8105;DHT22;4095;48.942;9.104;2022-12-31T08:13:22;17.10;99.90
8105;DHT22;4095;48.942;9.104;2022-12-31T08:15:48;17.10;99.90
8105;DHT22;4095;48.942;9.104;2022-12-31T08:18:14;17.10;99.90
8105;DHT22;4095;48.942;9.104;2022-12-31T08:26:59;17.20;99.90
8105;DHT22;4095;48.942;9.104;2022-12-31T08:32:57;17.20;99.90
8105;DHT22;4095;48.942;9.104;2022-12-31T08:38:31;17.30;99.90
8105;DHT22;4095;48.942;9.104;2022-12-31T08:49:19;17.50;99.90
8105;DHT22;4095;48.942;9.104;2022-12-31T08:51:45;17.50;99.90
8105;DHT22;4095;48.942;9.104;2022-12-31T08:54:12;17.50;99.90
8105;DHT22;4095;48.942;9.104;2022-12-31T09:08:03;17.70;99.90
8105;DHT22;4095;48.942;9.104;2022-12-31T09:13:40;17.80;99.90
8105;DHT22;4095;48.942;9.104;2022-12-31T09:18:42;17.90;99.90
8105;DHT22;4095;48.942;9.104;2022-12-31T09:21:09;18.00;99.90
8105;DHT22;4095;48.942;9.104;2022-12-31T09:23:35;18.10;99.90
8105;DHT22;4095;48.942;9.104;2022-12-31T09:26:13;18.20;99.70
8105;DHT22;4095;48.942;9.104;2022-12-31T09:37:27;18.50;99.40
8105;DHT22;4095;48.942;9.104;2022-12-31T09:39:56;18.50;99.40
8105;DHT22;4095;48.942;9.104;2022-12-31T09:51:19;18.70;99.20
8105;DHT22;4095;48.942;9.104;2022-12-31T09:53:55;18.70;98.90
8105;DHT22;4095;48.942;9.104;2022-12-31T09:56:36;18.80;98.70
8105;DHT22;4095;48.942;9.104;2022-12-31T10:02:07;19.10;98.80
8105;DHT22;4095;48.942;9.104;2022-12-31T10:07:58;19.40;98.10
8105;DHT22;4095;48.942;9.104;2022-12-31T10:10:53;19.60;97.90
8105;DHT22;4095;48.942;9.104;2022-12-31T10:13:39;19.80;97.50
8105;DHT22;4095;48.942;9.104;2022-12-31T10:25:06;20.20;97.20
8105;DHT22;4095;48.942;9.104;2022-12-31T10:27:57;20.60;96.80
8105;DHT22;4095;48.942;9.104;2022-12-31T10:30:24;21.10;96.10
8105;DHT22;4095;48.942;9.104;2022-12-31T10:35:33;22.50;94.20
8105;DHT22;4095;48.942;9.104;2022-12-31T10:40:53;23.50;93.30
8105;DHT22;4095;48.942;9.104;2022-12-31T10:43:38;23.70;92.60
8105;DHT22;4095;48.942;9.104;2022-12-31T10:55:09;24.90;90.80
8105;DHT22;4095;48.942;9.104;2022-12-31T11:00:38;25.60;90.10
8105;DHT22;4095;48.942;9.104;2022-12-31T11:16:21;23.70;90.90
8105;DHT22;4095;48.942;9.104;2022-12-31T11:19:06;23.20;91.10
8105;DHT22;4095;48.942;9.104;2022-12-31T11:25:00;22.50;91.70
8105;DHT22;4095;48.942;9.104;2022-12-31T11:33:16;23.70;91.50
8105;DHT22;4095;48.942;9.104;2022-12-31T11:36:09;24.10;90.80
8105;DHT22;4095;48.942;9.104;2022-12-31T11:38:52;24.10;90.30
8105;DHT22;4095;48.942;9.104;2022-12-31T11:41:34;24.40;90.70
8105;DHT22;4095;48.942;9.104;2022-12-31T11:49:58;24.90;89.60
8105;DHT22;4095;48.942;9.104;2022-12-31T11:57:48;25.70;88.00
8105;DHT22;4095;48.942;9.104;2022-12-31T12:02:46;25.00;87.50
8105;DHT22;4095;48.942;9.104;2022-12-31T12:05:16;24.70;89.30
8105;DHT22;4095;48.942;9.104;2022-12-31T12:07:45;24.70;89.30
8105;DHT22;4095;48.942;9.104;2022-12-31T12:10:35;24.70;88.60
8105;DHT22;4095;48.942;9.104;2022-12-31T12:13:12;24.70;88.90
8105;DHT22;4095;48.942;9.104;2022-12-31T12:15:38;24.80;89.00
8105;DHT22;4095;48.942;9.104;2022-12-31T12:20:48;24.50;88.20
8105;DHT22;4095;48.942;9.104;2022-12-31T12:23:26;24.30;89.10
8105;DHT22;4095;48.942;9.104;2022-12-31T12:25:52;24.10;89.20
8105;DHT22;4095;48.942;9.104;2022-12-31T12:31:01;24.30;89.40
8105;DHT22;4095;48.942;9.104;2022-12-31T12:33:28;24.10;88.90
8105;DHT22;4095;48.942;9.104;2022-12-31T12:36:15;24.00;89.10
8105;DHT22;4095;48.942;9.104;2022-12-31T12:38:41;23.60;90.30
8105;DHT22;4095;48.942;9.104;2022-12-31T12:41:22;23.30;90.20
8105;DHT22;4095;48.942;9.104;2022-12-31T12:44:01;22.90;90.80
8105;DHT22;4095;48.942;9.104;2022-12-31T12:48:57;22.40;91.60
8105;DHT22;4095;48.942;9.104;2022-12-31T12:52:17;22.20;91.50
8105;DHT22;4095;48.942;9.104;2022-12-31T12:55:04;22.00;91.60
8105;DHT22;4095;48.942;9.104;2022-12-31T13:14:31;21.50;92.50
8105;DHT22;4095;48.942;9.104;2022-12-31T13:19:58;21.40;92.60
8105;DHT22;4095;48.942;9.104;2022-12-31T13:22:39;21.40;92.90
8105;DHT22;4095;48.942;9.104;2022-12-31T13:25:37;21.30;92.90
8105;DHT22;4095;48.942;9.104;2022-12-31T13:28:11;21.20;92.70
8105;DHT22;4095;48.942;9.104;2022-12-31T13:30:44;21.10;92.70
8105;DHT22;4095;48.942;9.104;2022-12-31T13:33:25;21.00;92.40
8105;DHT22;4095;48.942;9.104;2022-12-31T13:36:04;21.00;92.90
8105;DHT22;4095;48.942;9.104;2022-12-31T13:38:41;21.00;93.00
8105;DHT22;4095;48.942;9.104;2022-12-31T13:48:51;20.90;92.90
8105;DHT22;4095;48.942;9.104;2022-12-31T13:56:47;20.80;92.80
8105;DHT22;4095;48.942;9.104;2022-12-31T13:59:37;20.80;93.20
8105;DHT22;4095;48.942;9.104;2022-12-31T14:04:59;20.70;93.00
8105;DHT22;4095;48.942;9.104;2022-12-31T14:07:37;20.60;92.80
8105;DHT22;4095;48.942;9.104;2022-12-31T14:10:15;20.60;93.00
8105;DHT22;4095;48.942;9.104;2022-12-31T14:12:59;20.50;93.00
8105;DHT22;4095;48.942;9.104;2022-12-31T14:15:41;20.50;92.80
8105;DHT22;4095;48.942;9.104;2022-12-31T14:18:14;20.40;92.90
8105;DHT22;4095;48.942;9.104;2022-12-31T14:26:49;20.20;92.90
8105;DHT22;4095;48.942;9.104;2022-12-31T14:29:52;20.20;93.20
8105;DHT22;4095;48.942;9.104;2022-12-31T14:35:23;20.10;93.20
8105;DHT22;4095;48.942;9.104;2022-12-31T14:49:55;19.90;93.10
8105;DHT22;4095;48.942;9.104;2022-12-31T14:52:32;19.80;93.20
8105;DHT22;4095;48.942;9.104;2022-12-31T15:00:20;19.70;93.10
8105;DHT22;4095;48.942;9.104;2022-12-31T15:19:48;19.60;93.30
8105;DHT22;4095;48.942;9.104;2022-12-31T15:22:43;19.60;93.20
8105;DHT22;4095;48.942;9.104;2022-12-31T15:25:29;19.60;93.30
8105;DHT22;4095;48.942;9.104;2022-12-31T15:27:57;19.50;93.50
8105;DHT22;4095;48.942;9.104;2022-12-31T15:33:03;19.40;93.50
8105;DHT22;4095;48.942;9.104;2022-12-31T15:35:42;19.40;93.70
8105;DHT22;4095;48.942;9.104;2022-12-31T15:40:50;19.40;93.80
8105;DHT22;4095;48.942;9.104;2022-12-31T15:43:39;19.30;93.80
8105;DHT22;4095;48.942;9.104;2022-12-31T15:46:15;19.20;93.70
8105;DHT22;4095;48.942;9.104;2022-12-31T15:48:49;19.20;93.90
8105;DHT22;4095;48.942;9.104;2022-12-31T15:51:28;19.20;94.00
8105;DHT22;4095;48.942;9.104;2022-12-31T15:53:56;19.10;94.20
8105;DHT22;4095;48.942;9.104;2022-12-31T15:56:38;19.00;94.00
8105;DHT22;4095;48.942;9.104;2022-12-31T15:59:11;19.00;94.30
8105;DHT22;4095;48.942;9.104;2022-12-31T16:01:40;18.90;94.40
8105;DHT22;4095;48.942;9.104;2022-12-31T16:04:23;18.90;94.60
8105;DHT22;4095;48.942;9.104;2022-12-31T16:06:50;18.80;94.70
8105;DHT22;4095;48.942;9.104;2022-12-31T16:09:24;18.70;94.80
8105;DHT22;4095;48.942;9.104;2022-12-31T16:11:52;18.60;95.00
8105;DHT22;4095;48.942;9.104;2022-12-31T16:14:39;18.60;95.00
8105;DHT22;4095;48.942;9.104;2022-12-31T16:17:30;18.50;95.30
8105;DHT22;4095;48.942;9.104;2022-12-31T16:19:56;18.40;95.40
8105;DHT22;4095;48.942;9.104;2022-12-31T16:24:58;18.40;95.40
8105;DHT22;4095;48.942;9.104;2022-12-31T16:27:25;18.30;95.60
8105;DHT22;4095;48.942;9.104;2022-12-31T16:30:01;18.30;95.60
8105;DHT22;4095;48.942;9.104;2022-12-31T16:32:36;18.30;95.80
8105;DHT22;4095;48.942;9.104;2022-12-31T16:35:02;18.30;95.70
8105;DHT22;4095;48.942;9.104;2022-12-31T16:37:28;18.40;95.70
8105;DHT22;4095;48.942;9.104;2022-12-31T16:42:24;18.30;95.80
8105;DHT22;4095;48.942;9.104;2022-12-31T16:44:52;18.30;95.90
8105;DHT22;4095;48.942;9.104;2022-12-31T16:47:19;18.30;95.80
8105;DHT22;4095;48.942;9.104;2022-12-31T16:49:49;18.30;95.80
8105;DHT22;4095;48.942;9.104;2022-12-31T16:52:30;18.40;95.80
8105;DHT22;4095;48.942;9.104;2022-12-31T16:54:56;18.40;95.70
8105;DHT22;4095;48.942;9.104;2022-12-31T16:57:26;18.50;95.70
8105;DHT22;4095;48.942;9.104;2022-12-31T16:59:56;18.50;95.70
8105;DHT22;4095;48.942;9.104;2022-12-31T17:02:33;18.50;95.80
8105;DHT22;4095;48.942;9.104;2022-12-31T17:05:01;18.40;95.80
8105;DHT22;4095;48.942;9.104;2022-12-31T17:10:15;18.30;96.10
8105;DHT22;4095;48.942;9.104;2022-12-31T17:13:08;18.20;96.20
8105;DHT22;4095;48.942;9.104;2022-12-31T17:15:41;18.10;96.40
8105;DHT22;4095;48.942;9.104;2022-12-31T17:18:18;18.00;96.50
8105;DHT22;4095;48.942;9.104;2022-12-31T17:20:45;17.90;96.70
8105;DHT22;4095;48.942;9.104;2022-12-31T17:23:18;17.80;96.90
8105;DHT22;4095;48.942;9.104;2022-12-31T17:25:46;17.80;97.00
8105;DHT22;4095;48.942;9.104;2022-12-31T17:28:22;17.80;97.00
8105;DHT22;4095;48.942;9.104;2022-12-31T17:30:48;17.80;97.00
8105;DHT22;4095;48.942;9.104;2022-12-31T17:35:46;17.70;97.10
8105;DHT22;4095;48.942;9.104;2022-12-31T17:43:21;17.60;97.30
8105;DHT22;4095;48.942;9.104;2022-12-31T17:45:49;17.60;97.30
8105;DHT22;4095;48.942;9.104;2022-12-31T17:48:17;17.60;97.30
8105;DHT22;4095;48.942;9.104;2022-12-31T17:50:52;17.60;97.30
8105;DHT22;4095;48.942;9.104;2022-12-31T17:53:18;17.60;97.30
8105;DHT22;4095;48.942;9.104;2022-12-31T17:55:46;17.50;97.20
8105;DHT22;4095;48.942;9.104;2022-12-31T17:59:00;17.50;97.20
8105;DHT22;4095;48.942;9.104;2022-12-31T18:01:07;17.50;97.40
8105;DHT22;4095;48.942;9.104;2022-12-31T18:03:33;17.50;97.20
8105;DHT22;4095;48.942;9.104;2022-12-31T18:05:59;17.60;97.20
8105;DHT22;4095;48.942;9.104;2022-12-31T18:08:24;17.60;97.20
8105;DHT22;4095;48.942;9.104;2022-12-31T18:10:50;17.60;97.10
8105;DHT22;4095;48.942;9.104;2022-12-31T18:13:22;17.60;97.20
8105;DHT22;4095;48.942;9.104;2022-12-31T18:15:48;17.60;97.20
8105;DHT22;4095;48.942;9.104;2022-12-31T18:18:25;17.60;97.20
8105;DHT22;4095;48.942;9.104;2022-12-31T18:21:02;17.60;97.10
8105;DHT22;4095;48.942;9.104;2022-12-31T18:26:04;17.50;97.10
8105;DHT22;4095;48.942;9.104;2022-12-31T18:28:29;17.50;97.10
8105;DHT22;4095;48.942;9.104;2022-12-31T18:30:55;17.50;97.20
8105;DHT22;4095;48.942;9.104;2022-12-31T18:33:21;17.40;97.20
8105;DHT22;4095;48.942;9.104;2022-12-31T18:35:51;17.40;97.30
8105;DHT22;4095;48.942;9.104;2022-12-31T18:38:18;17.30;97.40
8105;DHT22;4095;48.942;9.104;2022-12-31T18:40:53;17.30;97.50
8105;DHT22;4095;48.942;9.104;2022-12-31T18:43:20;17.30;97.50
8105;DHT22;4095;48.942;9.104;2022-12-31T18:45:47;17.20;97.70
8105;DHT22;4095;48.942;9.104;2022-12-31T18:48:13;17.20;97.50
8105;DHT22;4095;48.942;9.104;2022-12-31T18:50:39;17.20;97.50
8105;DHT22;4095;48.942;9.104;2022-12-31T18:53:05;17.10;97.60
8105;DHT22;4095;48.942;9.104;2022-12-31T18:55:38;17.00;97.60
8105;DHT22;4095;48.942;9.104;2022-12-31T18:58:06;17.00;97.80
8105;DHT22;4095;48.942;9.104;2022-12-31T19:00:33;16.90;97.70
8105;DHT22;4095;48.942;9.104;2022-12-31T19:02:58;16.90;97.80
8105;DHT22;4095;48.942;9.104;2022-12-31T19:05:27;16.80;98.00
8105;DHT22;4095;48.942;9.104;2022-12-31T19:07:53;16.70;98.00
8105;DHT22;4095;48.942;9.104;2022-12-31T19:10:20;16.60;98.10
8105;DHT22;4095;48.942;9.104;2022-12-31T19:12:46;16.50;98.40
8105;DHT22;4095;48.942;9.104;2022-12-31T19:15:30;16.40;98.50
8105;DHT22;4095;48.942;9.104;2022-12-31T19:17:58;16.30;98.80
8105;DHT22;4095;48.942;9.104;2022-12-31T19:20:24;16.20;98.80
8105;DHT22;4095;48.942;9.104;2022-12-31T19:22:49;16.20;98.90
8105;DHT22;4095;48.942;9.104;2022-12-31T19:25:27;16.20;99.00
8105;DHT22;4095;48.942;9.104;2022-12-31T19:27:55;16.10;99.00
8105;DHT22;4095;48.942;9.104;2022-12-31T19:30:26;16.20;99.00
8105;DHT22;4095;48.942;9.104;2022-12-31T19:32:52;16.20;98.80
8105;DHT22;4095;48.942;9.104;2022-12-31T19:35:18;16.30;98.80
8105;DHT22;4095;48.942;9.104;2022-12-31T19:37:45;16.30;98.70
8105;DHT22;4095;48.942;9.104;2022-12-31T19:40:18;16.30;98.60
8105;DHT22;4095;48.942;9.104;2022-12-31T19:42:46;16.40;98.60
8105;DHT22;4095;48.942;9.104;2022-12-31T19:45:17;16.40;98.50
8105;DHT22;4095;48.942;9.104;2022-12-31T19:47:44;16.30;98.40
8105;DHT22;4095;48.942;9.104;2022-12-31T19:50:15;16.40;98.40
8105;DHT22;4095;48.942;9.104;2022-12-31T19:52:43;16.50;98.30
8105;DHT22;4095;48.942;9.104;2022-12-31T19:55:12;16.50;98.20
8105;DHT22;4095;48.942;9.104;2022-12-31T19:57:38;16.50;98.10
8105;DHT22;4095;48.942;9.104;2022-12-31T20:00:05;16.50;98.10
8105;DHT22;4095;48.942;9.104;2022-12-31T20:02:30;16.60;98.10
8105;DHT22;4095;48.942;9.104;2022-12-31T20:04:56;16.60;97.90
8105;DHT22;4095;48.942;9.104;2022-12-31T20:07:22;16.60;97.90
8105;DHT22;4095;48.942;9.104;2022-12-31T20:09:47;16.70;97.80
8105;DHT22;4095;48.942;9.104;2022-12-31T20:12:13;16.70;97.70
8105;DHT22;4095;48.942;9.104;2022-12-31T20:14:38;16.80;97.70
8105;DHT22;4095;48.942;9.104;2022-12-31T20:17:04;16.80;97.70
8105;DHT22;4095;48.942;9.104;2022-12-31T20:19:30;16.80;97.70
8105;DHT22;4095;48.942;9.104;2022-12-31T20:21:55;16.80;97.70
8105;DHT22;4095;48.942;9.104;2022-12-31T20:24:21;16.80;97.60
8105;DHT22;4095;48.942;9.104;2022-12-31T20:26:46;16.80;97.60
8105;DHT22;4095;48.942;9.104;2022-12-31T20:29:12;16.80;97.70
8105;DHT22;4095;48.942;9.104;2022-12-31T20:31:37;16.80;97.60
8105;DHT22;4095;48.942;9.104;2022-12-31T20:34:04;16.70;97.60
8105;DHT22;4095;48.942;9.104;2022-12-31T20:36:29;16.70;97.60
8105;DHT22;4095;48.942;9.104;2022-12-31T20:38:57;16.70;97.70
8105;DHT22;4095;48.942;9.104;2022-12-31T20:41:23;16.70;97.70
8105;DHT22;4095;48.942;9.104;2022-12-31T20:43:49;16.70;97.70
8105;DHT22;4095;48.942;9.104;2022-12-31T20:46:18;16.60;97.70
8105;DHT22;4095;48.942;9.104;2022-12-31T20:48:45;16.60;97.70
8105;DHT22;4095;48.942;9.104;2022-12-31T20:51:12;16.60;97.80
8105;DHT22;4095;48.942;9.104;2022-12-31T20:53:38;16.60;97.80
8105;DHT22;4095;48.942;9.104;2022-12-31T20:56:05;16.60;97.90
8105;DHT22;4095;48.942;9.104;2022-12-31T20:58:31;16.50;97.90
8105;DHT22;4095;48.942;9.104;2022-12-31T21:00:57;16.50;97.90
8105;DHT22;4095;48.942;9.104;2022-12-31T21:03:22;16.50;97.90
8105;DHT22;4095;48.942;9.104;2022-12-31T21:05:53;16.40;97.90
8105;DHT22;4095;48.942;9.104;2022-12-31T21:08:19;16.50;98.00